createdAt,value
2017-02-02T00:00:24.257Z,19.16
2017-02-02T00:00:52.254Z,19.16
2017-02-02T00:01:20.510Z,19.15
2017-02-02T00:01:48.667Z,19.16
2017-02-02T00:02:17.026Z,19.17
2017-02-02T00:02:45.169Z,19.24
2017-02-02T00:03:13.408Z,19.23
2017-02-02T00:03:41.567Z,19.19
2017-02-02T00:04:09.792Z,19.2
2017-02-02T00:04:37.988Z,19.2
2017-02-02T00:05:06.098Z,19.19
2017-02-02T00:05:34.334Z,19.23
2017-02-02T00:06:02.493Z,19.27
2017-02-02T00:06:30.704Z,19.19
2017-02-02T00:06:58.715Z,19.2
2017-02-02T00:07:26.857Z,19.23
2017-02-02T00:07:55.072Z,19.2
2017-02-02T00:08:23.286Z,19.24
2017-02-02T00:08:51.463Z,19.23
2017-02-02T00:09:19.625Z,19.17
2017-02-02T00:09:47.821Z,19.25
2017-02-02T00:10:16.044Z,19.19
2017-02-02T00:10:44.370Z,19.24
2017-02-02T00:11:12.305Z,19.24
2017-02-02T00:11:40.609Z,19.2
2017-02-02T00:12:08.767Z,19.2
2017-02-02T00:12:37.161Z,19.28
2017-02-02T00:13:05.273Z,19.24
2017-02-02T00:13:33.388Z,19.19
2017-02-02T00:14:01.737Z,19.16
2017-02-02T00:14:29.985Z,19.24
2017-02-02T00:14:58.126Z,19.17
2017-02-02T00:15:26.356Z,19.2
2017-02-02T00:15:54.508Z,19.24
2017-02-02T00:16:22.738Z,19.2
2017-02-02T00:16:51.081Z,19.19
2017-02-02T00:17:19.414Z,19.24
2017-02-02T00:17:47.626Z,19.15
2017-02-02T00:18:15.761Z,19.27
2017-02-02T00:18:43.951Z,19.19
2017-02-02T00:19:11.863Z,19.2
2017-02-02T00:19:40.189Z,19.2
2017-02-02T00:20:08.474Z,19.27
2017-02-02T00:20:36.587Z,19.16
2017-02-02T00:21:04.788Z,19.27
2017-02-02T00:21:32.868Z,19.2
2017-02-02T00:22:00.969Z,19.24
2017-02-02T00:22:29.426Z,19.25
2017-02-02T00:22:57.509Z,19.17
2017-02-02T00:23:25.646Z,19.16
2017-02-02T00:23:53.755Z,19.16
2017-02-02T00:24:21.891Z,19.24
2017-02-02T00:25:10.406Z,19.25
2017-02-02T00:25:38.330Z,19.27
2017-02-02T00:26:06.532Z,19.23
2017-02-02T00:26:34.764Z,19.2
2017-02-02T00:27:02.946Z,19.25
2017-02-02T00:27:31.300Z,19.2
2017-02-02T00:27:59.782Z,19.2
2017-02-02T00:28:28.042Z,19.2
2017-02-02T00:28:56.181Z,19.23
2017-02-02T00:29:24.351Z,19.19
2017-02-02T00:29:52.663Z,19.23
2017-02-02T00:30:20.983Z,19.2
2017-02-02T00:30:49.165Z,19.24
2017-02-02T00:31:17.342Z,19.16
2017-02-02T00:31:45.553Z,19.23
2017-02-02T00:32:13.581Z,19.24
2017-02-02T00:32:42.054Z,19.27
2017-02-02T00:33:09.968Z,19.24
2017-02-02T00:33:38.205Z,19.25
2017-02-02T00:34:06.450Z,19.2
2017-02-02T00:34:34.922Z,19.2
2017-02-02T00:35:03.071Z,19.27
2017-02-02T00:35:31.342Z,19.23
2017-02-02T00:35:59.469Z,19.2
2017-02-02T00:36:27.725Z,19.24
2017-02-02T00:36:55.816Z,19.2
2017-02-02T00:37:24.013Z,19.17
2017-02-02T00:37:52.575Z,19.25
2017-02-02T00:38:20.845Z,19.27
2017-02-02T00:38:49.133Z,19.24
2017-02-02T00:39:17.219Z,19.19
2017-02-02T00:39:45.364Z,19.23
2017-02-02T00:40:13.389Z,19.24
2017-02-02T00:40:41.421Z,19.3
2017-02-02T00:41:09.570Z,19.24
2017-02-02T00:41:37.677Z,19.2
2017-02-02T00:42:05.923Z,19.24
2017-02-02T00:42:34.286Z,19.23
2017-02-02T00:43:02.640Z,19.23
2017-02-02T00:43:30.854Z,19.23
2017-02-02T00:43:58.999Z,19.3
2017-02-02T00:44:27.190Z,19.19
2017-02-02T00:44:55.359Z,19.25
2017-02-02T00:45:23.603Z,19.34
2017-02-02T00:45:51.760Z,19.27
2017-02-02T00:46:19.886Z,19.28
2017-02-02T00:46:48.231Z,19.31
2017-02-02T00:47:16.475Z,19.3
2017-02-02T00:47:44.947Z,19.28
2017-02-02T00:48:13.060Z,19.3
2017-02-02T00:48:41.381Z,19.2
2017-02-02T00:49:09.719Z,19.31
2017-02-02T00:49:37.953Z,19.3
2017-02-02T00:50:06.165Z,19.32
2017-02-02T00:50:34.306Z,19.31
2017-02-02T00:51:02.422Z,19.3
2017-02-02T00:51:30.631Z,19.28
2017-02-02T00:51:58.849Z,19.31
2017-02-02T00:52:26.952Z,19.35
2017-02-02T00:52:55.289Z,19.32
2017-02-02T00:53:23.451Z,19.24
2017-02-02T00:53:51.733Z,19.31
2017-02-02T00:54:19.925Z,19.23
2017-02-02T00:54:48.051Z,19.3
2017-02-02T00:55:16.305Z,19.34
2017-02-02T00:55:44.615Z,19.3
2017-02-02T00:56:12.892Z,19.23
2017-02-02T00:56:41.028Z,19.19
2017-02-02T00:57:09.136Z,19.2
2017-02-02T00:57:37.449Z,19.2
2017-02-02T00:58:06.327Z,19.23
2017-02-02T00:58:34.423Z,19.23
2017-02-02T00:59:02.650Z,19.28
2017-02-02T00:59:30.879Z,19.23
2017-02-02T00:59:58.995Z,19.19
2017-02-02T01:00:27.226Z,19.32
2017-02-02T01:00:55.488Z,19.23
2017-02-02T01:01:23.757Z,19.32
2017-02-02T01:01:52.050Z,19.34
2017-02-02T01:02:20.239Z,19.32
2017-02-02T01:02:48.678Z,19.34
2017-02-02T01:03:16.933Z,19.28
2017-02-02T01:03:45.274Z,19.31
2017-02-02T01:04:13.461Z,19.35
2017-02-02T01:04:41.543Z,19.3
2017-02-02T01:05:09.838Z,19.34
2017-02-02T01:05:38.152Z,19.35
2017-02-02T01:06:06.388Z,19.32
2017-02-02T01:06:34.625Z,19.3
2017-02-02T01:07:02.858Z,19.2
2017-02-02T01:07:31.204Z,19.31
2017-02-02T01:07:59.550Z,19.32
2017-02-02T01:08:27.656Z,19.32
2017-02-02T01:08:55.786Z,19.31
2017-02-02T01:09:24.020Z,19.31
2017-02-02T01:09:52.301Z,19.32
2017-02-02T01:10:20.549Z,19.3
2017-02-02T01:10:48.804Z,19.31
2017-02-02T01:11:16.896Z,19.32
2017-02-02T01:11:45.016Z,19.34
2017-02-02T01:12:13.238Z,19.3
2017-02-02T01:12:41.491Z,19.34
2017-02-02T01:13:09.968Z,19.24
2017-02-02T01:13:38.220Z,19.31
2017-02-02T01:14:06.494Z,19.19
2017-02-02T01:14:34.701Z,19.2
2017-02-02T01:15:03.019Z,19.24
2017-02-02T01:15:31.321Z,19.24
2017-02-02T01:15:59.577Z,19.19
2017-02-02T01:16:27.786Z,19.2
2017-02-02T01:16:56.046Z,19.16
2017-02-02T01:17:24.182Z,19.28
2017-02-02T01:17:52.855Z,19.16
2017-02-02T01:18:21.088Z,19.19
2017-02-02T01:18:49.133Z,19.24
2017-02-02T01:19:17.422Z,19.27
2017-02-02T01:19:45.551Z,19.23
2017-02-02T01:20:13.896Z,19.23
2017-02-02T01:20:42.108Z,19.23
2017-02-02T01:21:10.721Z,19.24
2017-02-02T01:21:38.868Z,19.19
2017-02-02T01:22:07.150Z,19.23
2017-02-02T01:22:35.312Z,19.23
2017-02-02T01:23:03.868Z,19.28
2017-02-02T01:23:32.095Z,19.31
2017-02-02T01:24:00.206Z,19.32
2017-02-02T01:24:28.608Z,19.3
2017-02-02T01:24:56.635Z,19.31
2017-02-02T01:25:24.605Z,19.32
2017-02-02T01:25:52.887Z,19.31
2017-02-02T01:26:21.334Z,19.34
2017-02-02T01:26:49.843Z,19.32
2017-02-02T01:27:18.400Z,19.37
2017-02-02T01:27:46.797Z,19.3
2017-02-02T01:28:15.142Z,19.37
2017-02-02T01:28:43.318Z,19.31
2017-02-02T01:29:11.656Z,19.31
2017-02-02T01:29:39.778Z,19.3
2017-02-02T01:30:08.161Z,19.3
2017-02-02T01:30:36.184Z,19.31
2017-02-02T01:31:04.386Z,19.32
2017-02-02T01:31:32.606Z,19.25
2017-02-02T01:32:00.684Z,19.32
2017-02-02T01:32:28.865Z,19.31
2017-02-02T01:32:57.117Z,19.31
2017-02-02T01:33:25.641Z,19.31
2017-02-02T01:33:53.817Z,19.31
2017-02-02T01:34:21.898Z,19.32
2017-02-02T01:34:49.846Z,19.35
2017-02-02T01:35:18.242Z,19.32
2017-02-02T01:35:46.362Z,19.27
2017-02-02T01:36:14.463Z,19.32
2017-02-02T01:36:42.788Z,19.28
2017-02-02T01:37:10.949Z,19.24
2017-02-02T01:37:39.295Z,19.31
2017-02-02T01:38:07.607Z,19.2
2017-02-02T01:38:35.909Z,19.23
2017-02-02T01:39:04.156Z,19.23
2017-02-02T01:39:32.355Z,19.24
2017-02-02T01:40:00.452Z,19.23
2017-02-02T01:40:28.681Z,19.2
2017-02-02T01:40:56.985Z,19.2
2017-02-02T01:41:25.193Z,19.27
2017-02-02T01:41:53.235Z,19.19
2017-02-02T01:42:21.526Z,19.25
2017-02-02T01:42:49.881Z,19.25
2017-02-02T01:43:18.219Z,19.2
2017-02-02T01:43:46.266Z,19.16
2017-02-02T01:44:14.252Z,19.25
2017-02-02T01:44:42.415Z,19.19
2017-02-02T01:45:10.619Z,19.24
2017-02-02T01:45:38.638Z,19.19
2017-02-02T01:46:06.945Z,19.2
2017-02-02T01:46:35.573Z,19.27
2017-02-02T01:47:03.637Z,19.28
2017-02-02T01:47:31.875Z,19.25
2017-02-02T01:47:59.862Z,19.25
2017-02-02T01:48:28.322Z,19.28
2017-02-02T01:48:56.477Z,19.2
2017-02-02T01:49:24.687Z,19.24
2017-02-02T01:49:53.217Z,19.2
2017-02-02T01:50:21.369Z,19.16
2017-02-02T01:50:49.768Z,19.2
2017-02-02T01:51:18.079Z,19.15
2017-02-02T01:51:46.430Z,19.16
2017-02-02T01:52:14.619Z,19.16
2017-02-02T01:52:42.895Z,19.15
2017-02-02T01:53:11.202Z,19.12
2017-02-02T01:53:39.725Z,19.17
2017-02-02T01:54:08.104Z,19.09
2017-02-02T01:54:36.180Z,19.16
2017-02-02T01:55:04.511Z,19.16
2017-02-02T01:55:32.869Z,19.2
2017-02-02T01:56:01.118Z,19.07
2017-02-02T01:56:29.474Z,19.13
2017-02-02T01:56:57.752Z,19.15
2017-02-02T01:57:25.973Z,19.12
2017-02-02T01:57:54.190Z,19.16
2017-02-02T01:58:22.315Z,19.13
2017-02-02T01:58:50.421Z,19.1
2017-02-02T01:59:18.724Z,19.16
2017-02-02T01:59:47.042Z,19.16
2017-02-02T02:00:15.277Z,19.13
2017-02-02T02:00:43.492Z,19.16
2017-02-02T02:01:11.526Z,19.17
2017-02-02T02:01:39.670Z,19.17
2017-02-02T02:02:07.880Z,19.17
2017-02-02T02:02:36.031Z,19.17
2017-02-02T02:03:04.282Z,19.16
2017-02-02T02:03:32.940Z,19.16
2017-02-02T02:04:01.093Z,19.2
2017-02-02T02:04:29.211Z,19.16
2017-02-02T02:04:57.314Z,19.17
2017-02-02T02:05:25.626Z,19.2
2017-02-02T02:05:53.985Z,19.24
2017-02-02T02:06:22.396Z,19.25
2017-02-02T02:06:50.590Z,19.2
2017-02-02T02:07:18.813Z,19.25
2017-02-02T02:07:47.049Z,19.24
2017-02-02T02:08:15.387Z,19.2
2017-02-02T02:08:43.613Z,19.19
2017-02-02T02:09:11.728Z,19.19
2017-02-02T02:09:39.743Z,19.24
2017-02-02T02:10:07.874Z,19.19
2017-02-02T02:10:35.988Z,19.24
2017-02-02T02:11:04.186Z,19.25
2017-02-02T02:11:32.789Z,19.23
2017-02-02T02:12:01.107Z,19.35
2017-02-02T02:12:29.380Z,19.3
2017-02-02T02:12:57.350Z,19.2
2017-02-02T02:13:25.413Z,19.3
2017-02-02T02:13:53.510Z,19.32
2017-02-02T02:14:21.543Z,19.2
2017-02-02T02:14:49.770Z,19.32
2017-02-02T02:15:17.834Z,19.25
2017-02-02T02:15:46.091Z,19.3
2017-02-02T02:16:14.153Z,19.32
2017-02-02T02:16:42.367Z,19.32
2017-02-02T02:17:10.535Z,19.32
2017-02-02T02:17:38.869Z,19.32
2017-02-02T02:18:06.979Z,19.35
2017-02-02T02:18:35.472Z,19.3
2017-02-02T02:19:03.612Z,19.32
2017-02-02T02:19:32.008Z,19.34
2017-02-02T02:20:00.226Z,19.32
2017-02-02T02:20:28.560Z,19.31
2017-02-02T02:20:56.780Z,19.32
2017-02-02T02:21:25.054Z,19.34
2017-02-02T02:21:53.272Z,19.35
2017-02-02T02:22:21.546Z,19.37
2017-02-02T02:22:49.661Z,19.37
2017-02-02T02:23:17.831Z,19.35
2017-02-02T02:23:46.088Z,19.34
2017-02-02T02:24:14.252Z,19.35
2017-02-02T02:24:42.534Z,19.35
2017-02-02T02:25:10.756Z,19.32
2017-02-02T02:25:38.985Z,19.37
2017-02-02T02:26:07.207Z,19.32
2017-02-02T02:26:35.362Z,19.37
2017-02-02T02:27:03.823Z,19.34
2017-02-02T02:27:32.052Z,19.32
2017-02-02T02:28:00.173Z,19.28
2017-02-02T02:28:28.597Z,19.31
2017-02-02T02:28:56.946Z,19.2
2017-02-02T02:29:25.090Z,19.3
2017-02-02T02:29:53.283Z,19.24
2017-02-02T02:30:21.377Z,19.23
2017-02-02T02:30:49.504Z,19.24
2017-02-02T02:31:17.742Z,19.23
2017-02-02T02:31:45.967Z,19.23
2017-02-02T02:32:14.301Z,19.19
2017-02-02T02:32:42.504Z,19.25
2017-02-02T02:33:10.680Z,19.23
2017-02-02T02:33:39.260Z,19.17
2017-02-02T02:34:07.504Z,19.19
2017-02-02T02:34:35.520Z,19.23
2017-02-02T02:35:03.717Z,19.19
2017-02-02T02:35:31.835Z,19.2
2017-02-02T02:35:59.943Z,19.23
2017-02-02T02:36:28.177Z,19.27
2017-02-02T02:36:56.311Z,19.31
2017-02-02T02:37:24.526Z,19.31
2017-02-02T02:37:52.812Z,19.19
2017-02-02T02:38:21.020Z,19.23
2017-02-02T02:38:49.568Z,19.23
2017-02-02T02:39:18.031Z,19.3
2017-02-02T02:39:46.321Z,19.25
2017-02-02T02:40:14.518Z,19.25
2017-02-02T02:40:42.748Z,19.24
2017-02-02T02:41:10.769Z,19.3
2017-02-02T02:41:39.086Z,19.19
2017-02-02T02:42:07.075Z,19.23
2017-02-02T02:42:35.368Z,19.2
2017-02-02T02:43:03.569Z,19.2
2017-02-02T02:43:31.860Z,19.25
2017-02-02T02:43:59.976Z,19.19
2017-02-02T02:44:28.326Z,19.24
2017-02-02T02:44:56.540Z,19.2
2017-02-02T02:45:24.749Z,19.19
2017-02-02T02:45:53.017Z,19.25
2017-02-02T02:46:21.318Z,19.2
2017-02-02T02:46:49.568Z,19.23
2017-02-02T02:47:17.876Z,19.2
2017-02-02T02:47:46.123Z,19.25
2017-02-02T02:48:14.252Z,19.24
2017-02-02T02:48:42.724Z,19.19
2017-02-02T02:49:10.814Z,19.25
2017-02-02T02:49:39.171Z,19.2
2017-02-02T02:50:07.354Z,19.12
2017-02-02T02:50:35.681Z,19.23
2017-02-02T02:51:03.868Z,19.17
2017-02-02T02:51:31.982Z,19.12
2017-02-02T02:52:00.208Z,19.23
2017-02-02T02:52:28.389Z,19.19
2017-02-02T02:52:56.562Z,19.23
2017-02-02T02:53:24.810Z,19.15
2017-02-02T02:53:53.390Z,19.16
2017-02-02T02:54:21.531Z,19.17
2017-02-02T02:54:49.758Z,19.12
2017-02-02T02:55:17.965Z,19.19
2017-02-02T02:55:45.997Z,19.19
2017-02-02T02:56:14.140Z,19.19
2017-02-02T02:56:42.247Z,19.12
2017-02-02T02:57:10.435Z,19.16
2017-02-02T02:57:38.730Z,19.12
2017-02-02T02:58:06.897Z,19.15
2017-02-02T02:58:34.831Z,19.15
2017-02-02T02:59:03.475Z,19.15
2017-02-02T02:59:31.753Z,19.13
2017-02-02T02:59:59.863Z,19.12
2017-02-02T03:00:28.067Z,19.15
2017-02-02T03:00:56.057Z,19.13
2017-02-02T03:01:24.362Z,19.17
2017-02-02T03:01:52.677Z,19.09
2017-02-02T03:02:20.765Z,19.07
2017-02-02T03:02:49.000Z,19.07
2017-02-02T03:03:17.159Z,19.06
2017-02-02T03:03:45.516Z,19.06
2017-02-02T03:04:13.739Z,19.07
2017-02-02T03:04:41.858Z,19.13
2017-02-02T03:05:10.026Z,19.05
2017-02-02T03:05:38.168Z,19.16
2017-02-02T03:06:06.386Z,19.09
2017-02-02T03:06:34.507Z,19.1
2017-02-02T03:07:02.704Z,19.07
2017-02-02T03:07:30.972Z,19.05
2017-02-02T03:07:59.261Z,19.09
2017-02-02T03:08:27.393Z,18.96
2017-02-02T03:08:55.729Z,19.05
2017-02-02T03:09:23.726Z,19.05
2017-02-02T03:09:52.574Z,19.02
2017-02-02T03:10:20.666Z,19.06
2017-02-02T03:10:48.595Z,19
2017-02-02T03:11:16.821Z,19.02
2017-02-02T03:11:44.920Z,18.99
2017-02-02T03:12:12.978Z,18.99
2017-02-02T03:12:41.174Z,18.99
2017-02-02T03:13:09.371Z,19.05
2017-02-02T03:13:37.646Z,19
2017-02-02T03:14:06.229Z,19.02
2017-02-02T03:14:34.549Z,19.07
2017-02-02T03:15:02.805Z,19
2017-02-02T03:15:31.019Z,18.99
2017-02-02T03:15:59.312Z,18.94
2017-02-02T03:16:27.521Z,18.94
2017-02-02T03:16:55.548Z,19.02
2017-02-02T03:17:23.844Z,18.97
2017-02-02T03:17:51.994Z,18.94
2017-02-02T03:18:20.253Z,18.91
2017-02-02T03:18:48.378Z,18.87
2017-02-02T03:19:16.412Z,18.94
2017-02-02T03:19:44.586Z,18.87
2017-02-02T03:20:12.555Z,18.9
2017-02-02T03:20:40.663Z,18.91
2017-02-02T03:21:08.883Z,18.9
2017-02-02T03:21:37.160Z,18.93
2017-02-02T03:22:05.397Z,18.94
2017-02-02T03:22:33.509Z,18.9
2017-02-02T03:23:01.740Z,18.82
2017-02-02T03:23:29.969Z,18.81
2017-02-02T03:23:58.114Z,18.91
2017-02-02T03:24:26.399Z,18.82
2017-02-02T03:24:54.715Z,18.82
2017-02-02T03:25:22.709Z,18.79
2017-02-02T03:25:51.037Z,18.81
2017-02-02T03:26:19.254Z,18.82
2017-02-02T03:26:47.377Z,18.84
2017-02-02T03:27:15.294Z,18.82
2017-02-02T03:27:43.577Z,18.82
2017-02-02T03:28:11.913Z,18.81
2017-02-02T03:28:40.038Z,18.79
2017-02-02T03:29:08.320Z,18.86
2017-02-02T03:29:36.588Z,18.86
2017-02-02T03:30:04.841Z,18.84
2017-02-02T03:30:33.027Z,18.79
2017-02-02T03:31:01.237Z,18.87
2017-02-02T03:31:29.436Z,18.82
2017-02-02T03:31:57.558Z,18.84
2017-02-02T03:32:25.557Z,18.84
2017-02-02T03:32:53.761Z,18.84
2017-02-02T03:33:21.847Z,18.78
2017-02-02T03:33:50.164Z,18.84
2017-02-02T03:34:18.430Z,18.79
2017-02-02T03:34:46.549Z,18.84
2017-02-02T03:35:14.800Z,18.81
2017-02-02T03:35:43.047Z,18.75
2017-02-02T03:36:11.069Z,18.86
2017-02-02T03:36:39.183Z,18.76
2017-02-02T03:37:07.229Z,18.84
2017-02-02T03:37:35.510Z,18.75
2017-02-02T03:38:03.778Z,18.84
2017-02-02T03:38:32.062Z,18.82
2017-02-02T03:39:00.402Z,18.75
2017-02-02T03:39:28.926Z,18.76
2017-02-02T03:39:57.078Z,18.79
2017-02-02T03:40:25.120Z,18.76
2017-02-02T03:40:53.234Z,18.78
2017-02-02T03:41:21.545Z,18.71
2017-02-02T03:41:49.588Z,18.78
2017-02-02T03:42:17.794Z,18.74
2017-02-02T03:42:45.734Z,18.79
2017-02-02T03:43:13.816Z,18.71
2017-02-02T03:43:42.023Z,18.74
2017-02-02T03:44:10.168Z,18.69
2017-02-02T03:44:38.683Z,18.76
2017-02-02T03:45:06.840Z,18.72
2017-02-02T03:45:34.974Z,18.71
2017-02-02T03:46:03.123Z,18.75
2017-02-02T03:46:31.439Z,18.74
2017-02-02T03:46:59.644Z,18.75
2017-02-02T03:47:27.903Z,18.76
2017-02-02T03:47:55.987Z,18.72
2017-02-02T03:48:24.170Z,18.71
2017-02-02T03:48:52.210Z,18.72
2017-02-02T03:49:20.335Z,18.71
2017-02-02T03:49:48.826Z,18.69
2017-02-02T03:50:17.098Z,18.65
2017-02-02T03:50:45.198Z,18.68
2017-02-02T03:51:13.450Z,18.68
2017-02-02T03:51:41.662Z,18.66
2017-02-02T03:52:09.765Z,18.75
2017-02-02T03:52:38.051Z,18.68
2017-02-02T03:53:06.389Z,18.71
2017-02-02T03:53:34.636Z,18.68
2017-02-02T03:54:02.824Z,18.66
2017-02-02T03:54:31.023Z,18.68
2017-02-02T03:54:59.192Z,18.68
2017-02-02T03:55:27.242Z,18.68
2017-02-02T03:55:55.502Z,18.68
2017-02-02T03:56:23.786Z,18.66
2017-02-02T03:56:51.914Z,18.68
2017-02-02T03:57:20.228Z,18.66
2017-02-02T03:57:48.337Z,18.63
2017-02-02T03:58:16.497Z,18.63
2017-02-02T03:58:44.629Z,18.6
2017-02-02T03:59:12.916Z,18.65
2017-02-02T03:59:41.440Z,18.65
2017-02-02T04:00:09.738Z,18.68
2017-02-02T04:00:37.963Z,18.68
2017-02-02T04:01:06.165Z,18.6
2017-02-02T04:01:34.288Z,18.56
2017-02-02T04:02:02.579Z,18.63
2017-02-02T04:02:30.722Z,18.59
2017-02-02T04:02:58.935Z,18.59
2017-02-02T04:03:27.262Z,18.57
2017-02-02T04:03:55.463Z,18.65
2017-02-02T04:04:23.664Z,18.69
2017-02-02T04:04:51.934Z,18.59
2017-02-02T04:05:20.107Z,18.66
2017-02-02T04:05:48.310Z,18.66
2017-02-02T04:06:16.416Z,18.54
2017-02-02T04:06:44.608Z,18.59
2017-02-02T04:07:12.621Z,18.57
2017-02-02T04:07:40.910Z,18.59
2017-02-02T04:08:09.103Z,18.56
2017-02-02T04:08:37.383Z,18.57
2017-02-02T04:09:05.666Z,18.66
2017-02-02T04:09:34.155Z,18.66
2017-02-02T04:10:02.253Z,18.6
2017-02-02T04:10:30.459Z,18.66
2017-02-02T04:10:58.668Z,18.6
2017-02-02T04:11:26.966Z,18.63
2017-02-02T04:11:55.194Z,18.51
2017-02-02T04:12:23.347Z,18.61
2017-02-02T04:12:51.546Z,18.6
2017-02-02T04:13:19.854Z,18.57
2017-02-02T04:13:47.992Z,18.59
2017-02-02T04:14:16.123Z,18.6
2017-02-02T04:14:44.526Z,18.53
2017-02-02T04:15:12.761Z,18.65
2017-02-02T04:15:40.940Z,18.56
2017-02-02T04:16:09.289Z,18.54
2017-02-02T04:16:37.473Z,18.61
2017-02-02T04:17:05.610Z,18.56
2017-02-02T04:17:33.721Z,18.56
2017-02-02T04:18:01.795Z,18.6
2017-02-02T04:18:29.916Z,18.63
2017-02-02T04:18:58.014Z,18.54
2017-02-02T04:19:26.093Z,18.61
2017-02-02T04:19:54.479Z,18.56
2017-02-02T04:20:22.662Z,18.6
2017-02-02T04:20:50.890Z,18.51
2017-02-02T04:21:18.982Z,18.54
2017-02-02T04:21:47.109Z,18.59
2017-02-02T04:22:15.198Z,18.56
2017-02-02T04:22:43.400Z,18.59
2017-02-02T04:23:11.521Z,18.51
2017-02-02T04:23:39.760Z,18.61
2017-02-02T04:24:07.798Z,18.59
2017-02-02T04:24:36.098Z,18.57
2017-02-02T04:25:04.413Z,18.54
2017-02-02T04:25:32.706Z,18.59
2017-02-02T04:26:00.961Z,18.51
2017-02-02T04:26:29.166Z,18.51
2017-02-02T04:26:57.252Z,18.47
2017-02-02T04:27:25.354Z,18.5
2017-02-02T04:27:53.647Z,18.49
2017-02-02T04:28:21.757Z,18.51
2017-02-02T04:28:49.840Z,18.47
2017-02-02T04:29:17.933Z,18.49
2017-02-02T04:29:46.075Z,18.49
2017-02-02T04:30:14.380Z,18.45
2017-02-02T04:30:42.571Z,18.51
2017-02-02T04:31:10.777Z,18.5
2017-02-02T04:31:38.963Z,18.5
2017-02-02T04:32:07.145Z,18.51
2017-02-02T04:32:35.391Z,18.49
2017-02-02T04:33:03.524Z,18.51
2017-02-02T04:33:31.809Z,18.49
2017-02-02T04:34:00.110Z,18.5
2017-02-02T04:34:28.124Z,18.45
2017-02-02T04:34:56.708Z,18.49
2017-02-02T04:35:24.750Z,18.49
2017-02-02T04:35:53.013Z,18.5
2017-02-02T04:36:21.342Z,18.54
2017-02-02T04:36:49.544Z,18.49
2017-02-02T04:37:17.875Z,18.53
2017-02-02T04:37:46.094Z,18.49
2017-02-02T04:38:14.303Z,18.51
2017-02-02T04:38:42.537Z,18.54
2017-02-02T04:39:10.641Z,18.49
2017-02-02T04:39:38.762Z,18.5
2017-02-02T04:40:06.853Z,18.49
2017-02-02T04:40:34.975Z,18.47
2017-02-02T04:41:03.208Z,18.45
2017-02-02T04:41:31.291Z,18.53
2017-02-02T04:41:59.469Z,18.45
2017-02-02T04:42:27.591Z,18.49
2017-02-02T04:42:55.871Z,18.49
2017-02-02T04:43:24.043Z,18.53
2017-02-02T04:43:52.183Z,18.51
2017-02-02T04:44:20.419Z,18.51
2017-02-02T04:44:48.633Z,18.47
2017-02-02T04:45:16.871Z,18.6
2017-02-02T04:45:45.023Z,18.53
2017-02-02T04:46:13.111Z,18.53
2017-02-02T04:46:41.363Z,18.54
2017-02-02T04:47:09.575Z,18.59
2017-02-02T04:47:37.743Z,18.59
2017-02-02T04:48:05.960Z,18.61
2017-02-02T04:48:34.204Z,18.54
2017-02-02T04:49:02.168Z,18.63
2017-02-02T04:49:30.176Z,18.59
2017-02-02T04:49:58.457Z,18.65
2017-02-02T04:50:26.810Z,18.57
2017-02-02T04:50:55.089Z,18.54
2017-02-02T04:51:23.387Z,18.5
2017-02-02T04:51:51.424Z,18.54
2017-02-02T04:52:19.633Z,18.5
2017-02-02T04:52:47.948Z,18.6
2017-02-02T04:53:16.068Z,18.61
2017-02-02T04:53:44.092Z,18.66
2017-02-02T04:54:12.176Z,18.6
2017-02-02T04:54:40.456Z,18.5
2017-02-02T04:55:08.927Z,18.65
2017-02-02T04:55:37.134Z,18.57
2017-02-02T04:56:05.234Z,18.57
2017-02-02T04:56:33.474Z,18.65
2017-02-02T04:57:01.713Z,18.56
2017-02-02T04:57:29.919Z,18.59
2017-02-02T04:57:58.167Z,18.59
2017-02-02T04:58:26.273Z,18.56
2017-02-02T04:58:54.495Z,18.5
2017-02-02T04:59:22.686Z,18.53
2017-02-02T04:59:50.830Z,18.5
2017-02-02T05:00:18.833Z,18.49
2017-02-02T05:00:47.160Z,18.53
2017-02-02T05:01:15.216Z,18.51
2017-02-02T05:01:43.383Z,18.51
2017-02-02T05:02:11.527Z,18.5
2017-02-02T05:02:39.552Z,18.49
2017-02-02T05:03:07.696Z,18.54
2017-02-02T05:03:35.817Z,18.51
2017-02-02T05:04:04.005Z,18.51
2017-02-02T05:04:32.194Z,18.61
2017-02-02T05:05:00.309Z,18.61
2017-02-02T05:05:28.719Z,18.61
2017-02-02T05:05:56.862Z,18.56
2017-02-02T05:06:24.815Z,18.61
2017-02-02T05:06:52.930Z,18.54
2017-02-02T05:07:21.091Z,18.63
2017-02-02T05:07:49.317Z,18.56
2017-02-02T05:08:17.450Z,18.59
2017-02-02T05:08:45.761Z,18.66
2017-02-02T05:09:13.778Z,18.61
2017-02-02T05:09:41.812Z,18.63
2017-02-02T05:10:10.117Z,18.63
2017-02-02T05:10:38.523Z,18.65
2017-02-02T05:11:06.669Z,18.65
2017-02-02T05:11:34.854Z,18.61
2017-02-02T05:12:02.835Z,18.63
2017-02-02T05:12:30.927Z,18.59
2017-02-02T05:12:59.125Z,18.69
2017-02-02T05:13:27.297Z,18.68
2017-02-02T05:13:55.474Z,18.66
2017-02-02T05:14:23.575Z,18.63
2017-02-02T05:14:51.783Z,18.66
2017-02-02T05:15:20.162Z,18.71
2017-02-02T05:15:48.207Z,18.74
2017-02-02T05:16:16.385Z,18.69
2017-02-02T05:16:44.399Z,18.75
2017-02-02T05:17:12.592Z,18.66
2017-02-02T05:17:40.851Z,18.76
2017-02-02T05:18:08.778Z,18.69
2017-02-02T05:18:37.024Z,18.72
2017-02-02T05:19:05.093Z,18.72
2017-02-02T05:19:33.312Z,18.68
2017-02-02T05:20:01.434Z,18.74
2017-02-02T05:20:29.691Z,18.65
2017-02-02T05:20:57.845Z,18.68
2017-02-02T05:21:26.088Z,18.66
2017-02-02T05:21:54.343Z,18.71
2017-02-02T05:22:22.380Z,18.71
2017-02-02T05:22:50.632Z,18.61
2017-02-02T05:23:18.798Z,18.63
2017-02-02T05:23:46.817Z,18.65
2017-02-02T05:24:14.999Z,18.66
2017-02-02T05:24:43.312Z,18.63
2017-02-02T05:25:11.387Z,18.68
2017-02-02T05:25:39.762Z,18.66
2017-02-02T05:26:07.848Z,18.69
2017-02-02T05:26:36.112Z,18.66
2017-02-02T05:27:04.322Z,18.69
2017-02-02T05:27:32.421Z,18.71
2017-02-02T05:28:00.482Z,18.74
2017-02-02T05:28:28.680Z,18.74
2017-02-02T05:28:56.659Z,18.71
2017-02-02T05:29:24.900Z,18.66
2017-02-02T05:29:53.121Z,18.69
2017-02-02T05:30:21.274Z,18.74
2017-02-02T05:30:49.773Z,18.72
2017-02-02T05:31:17.984Z,18.71
2017-02-02T05:31:46.101Z,18.69
2017-02-02T05:32:14.418Z,18.68
2017-02-02T05:32:42.617Z,18.68
2017-02-02T05:33:10.828Z,18.69
2017-02-02T05:33:38.941Z,18.68
2017-02-02T05:34:07.234Z,18.69
2017-02-02T05:34:35.501Z,18.74
2017-02-02T05:35:03.723Z,18.71
2017-02-02T05:35:31.703Z,18.71
2017-02-02T05:36:00.103Z,18.71
2017-02-02T05:36:28.293Z,18.75
2017-02-02T05:36:56.415Z,18.72
2017-02-02T05:37:24.729Z,18.74
2017-02-02T05:37:52.878Z,18.74
2017-02-02T05:38:21.120Z,18.75
2017-02-02T05:38:49.305Z,18.74
2017-02-02T05:39:17.439Z,18.74
2017-02-02T05:39:45.457Z,18.74
2017-02-02T05:40:13.671Z,18.75
2017-02-02T05:40:42.289Z,18.71
2017-02-02T05:41:10.527Z,18.75
2017-02-02T05:41:38.704Z,18.81
2017-02-02T05:42:06.904Z,18.76
2017-02-02T05:42:35.139Z,18.82
2017-02-02T05:43:03.226Z,18.81
2017-02-02T05:43:31.270Z,18.89
2017-02-02T05:43:59.587Z,18.81
2017-02-02T05:44:27.820Z,18.89
2017-02-02T05:44:56.081Z,18.81
2017-02-02T05:45:24.141Z,18.9
2017-02-02T05:45:52.430Z,18.79
2017-02-02T05:46:20.477Z,18.79
2017-02-02T05:46:48.465Z,18.86
2017-02-02T05:47:16.819Z,18.86
2017-02-02T05:47:45.041Z,18.94
2017-02-02T05:48:13.210Z,18.94
2017-02-02T05:48:41.349Z,18.9
2017-02-02T05:49:09.711Z,18.93
2017-02-02T05:49:37.979Z,18.87
2017-02-02T05:50:06.037Z,18.86
2017-02-02T05:50:34.241Z,18.9
2017-02-02T05:51:02.597Z,18.89
2017-02-02T05:51:30.820Z,18.87
2017-02-02T05:51:58.935Z,18.93
2017-02-02T05:52:27.181Z,18.89
2017-02-02T05:52:55.272Z,18.96
2017-02-02T05:53:23.520Z,18.89
2017-02-02T05:53:51.623Z,18.87
2017-02-02T05:54:19.794Z,18.87
2017-02-02T05:54:47.985Z,18.9
2017-02-02T05:55:16.093Z,18.97
2017-02-02T05:55:44.282Z,18.87
2017-02-02T05:56:12.739Z,18.94
2017-02-02T05:56:41.054Z,18.89
2017-02-02T05:57:09.378Z,18.86
2017-02-02T05:57:37.502Z,18.99
2017-02-02T05:58:05.638Z,18.87
2017-02-02T05:58:33.822Z,18.9
2017-02-02T05:59:01.960Z,18.86
2017-02-02T05:59:30.184Z,18.86
2017-02-02T05:59:58.312Z,18.87
2017-02-02T06:00:26.542Z,18.86
2017-02-02T06:00:54.927Z,18.86
2017-02-02T06:01:22.948Z,18.89
2017-02-02T06:01:51.089Z,18.89
2017-02-02T06:02:19.294Z,18.9
2017-02-02T06:02:47.526Z,18.91
2017-02-02T06:03:15.655Z,18.94
2017-02-02T06:03:43.790Z,18.96
2017-02-02T06:04:11.809Z,18.82
2017-02-02T06:04:40.123Z,18.93
2017-02-02T06:05:08.350Z,18.91
2017-02-02T06:05:36.553Z,18.91